Terminal Aerodrome Forecast
Issued by NWS Sterling, VA

Current Version | Previous Version | Graphics & Text | Print | Product List | Glossary On
Versions: 1 2 3 4 5 6 7 8 9 10 11 12 13 14 15 16 17 18 19 20 21 22 23 24 25 26 27 28
000
FTUS41 KLWX 011722
TAFDCA
TAF
KDCA 011722Z 0118/0218 26007KT P6SM SCT050 BKN110
     FM012100 28007KT P6SM FEW050 SCT110
     FM012300 28005KT P6SM SCT050 BKN110
     FM020200 31004KT P6SM SCT110=

USA.gov is the U.S. government's official web portal to all federal, state and local government web resources and services.